sensor_id;sensor_type;location;lat;lon;timestamp;P1;durP1;ratioP1;P2;durP2;ratioP2
32096;SDS011;18610;49.916;8.284;2023-02-19T00:00:09;12.77;;;5.43;;
32096;SDS011;18610;49.916;8.284;2023-02-19T00:02:38;11.30;;;5.15;;
32096;SDS011;18610;49.916;8.284;2023-02-19T00:05:06;8.10;;;5.65;;
32096;SDS011;18610;49.916;8.284;2023-02-19T00:07:32;6.18;;;4.80;;
32096;SDS011;18610;49.916;8.284;2023-02-19T00:10:00;9.75;;;4.65;;
32096;SDS011;18610;49.916;8.284;2023-02-19T00:12:27;11.98;;;5.80;;
32096;SDS011;18610;49.916;8.284;2023-02-19T00:14:54;7.22;;;4.90;;
32096;SDS011;18610;49.916;8.284;2023-02-19T00:17:21;5.78;;;5.10;;
32096;SDS011;18610;49.916;8.284;2023-02-19T00:19:48;5.97;;;4.78;;
32096;SDS011;18610;49.916;8.284;2023-02-19T00:22:14;9.77;;;5.03;;
32096;SDS011;18610;49.916;8.284;2023-02-19T00:24:41;11.93;;;5.13;;
32096;SDS011;18610;49.916;8.284;2023-02-19T00:27:09;7.13;;;4.75;;
32096;SDS011;18610;49.916;8.284;2023-02-19T00:29:36;7.53;;;4.88;;
32096;SDS011;18610;49.916;8.284;2023-02-19T00:32:02;7.80;;;4.55;;
32096;SDS011;18610;49.916;8.284;2023-02-19T00:34:29;9.82;;;4.70;;
32096;SDS011;18610;49.916;8.284;2023-02-19T00:36:56;6.15;;;5.18;;
32096;SDS011;18610;49.916;8.284;2023-02-19T00:39:23;7.20;;;5.13;;
32096;SDS011;18610;49.916;8.284;2023-02-19T00:41:49;8.10;;;5.05;;
32096;SDS011;18610;49.916;8.284;2023-02-19T00:44:17;5.95;;;4.68;;
32096;SDS011;18610;49.916;8.284;2023-02-19T00:46:45;8.85;;;5.28;;
32096;SDS011;18610;49.916;8.284;2023-02-19T00:49:14;5.38;;;4.70;;
32096;SDS011;18610;49.916;8.284;2023-02-19T00:51:43;8.55;;;4.90;;
32096;SDS011;18610;49.916;8.284;2023-02-19T00:54:10;9.60;;;5.43;;
32096;SDS011;18610;49.916;8.284;2023-02-19T00:56:37;7.50;;;5.38;;
32096;SDS011;18610;49.916;8.284;2023-02-19T00:59:04;6.53;;;5.05;;
32096;SDS011;18610;49.916;8.284;2023-02-19T01:01:32;11.38;;;4.95;;
32096;SDS011;18610;49.916;8.284;2023-02-19T01:03:59;10.65;;;5.72;;
32096;SDS011;18610;49.916;8.284;2023-02-19T01:06:25;10.13;;;5.13;;
32096;SDS011;18610;49.916;8.284;2023-02-19T01:08:54;8.15;;;4.43;;
32096;SDS011;18610;49.916;8.284;2023-02-19T01:11:21;5.85;;;4.90;;
32096;SDS011;18610;49.916;8.284;2023-02-19T01:13:47;14.00;;;5.07;;
32096;SDS011;18610;49.916;8.284;2023-02-19T01:16:15;5.70;;;4.25;;
32096;SDS011;18610;49.916;8.284;2023-02-19T01:18:44;10.23;;;4.53;;
32096;SDS011;18610;49.916;8.284;2023-02-19T01:21:12;7.85;;;4.38;;
32096;SDS011;18610;49.916;8.284;2023-02-19T01:23:41;6.72;;;4.22;;
32096;SDS011;18610;49.916;8.284;2023-02-19T01:26:10;6.88;;;4.22;;
32096;SDS011;18610;49.916;8.284;2023-02-19T01:28:38;7.53;;;3.75;;
32096;SDS011;18610;49.916;8.284;2023-02-19T01:31:06;6.18;;;3.72;;
32096;SDS011;18610;49.916;8.284;2023-02-19T01:33:36;4.80;;;3.78;;
32096;SDS011;18610;49.916;8.284;2023-02-19T01:36:05;9.20;;;4.22;;
32096;SDS011;18610;49.916;8.284;2023-02-19T01:38:32;6.18;;;3.63;;
32096;SDS011;18610;49.916;8.284;2023-02-19T01:40:59;7.32;;;3.60;;
32096;SDS011;18610;49.916;8.284;2023-02-19T01:43:30;8.03;;;4.10;;
32096;SDS011;18610;49.916;8.284;2023-02-19T01:45:57;8.63;;;4.28;;
32096;SDS011;18610;49.916;8.284;2023-02-19T01:48:25;7.15;;;4.30;;
32096;SDS011;18610;49.916;8.284;2023-02-19T01:50:55;4.93;;;3.40;;
32096;SDS011;18610;49.916;8.284;2023-02-19T01:53:25;10.40;;;3.90;;
32096;SDS011;18610;49.916;8.284;2023-02-19T01:55:56;7.03;;;3.55;;
32096;SDS011;18610;49.916;8.284;2023-02-19T01:58:27;6.13;;;3.58;;
32096;SDS011;18610;49.916;8.284;2023-02-19T02:00:56;4.60;;;3.80;;
32096;SDS011;18610;49.916;8.284;2023-02-19T02:03:24;6.57;;;4.15;;
32096;SDS011;18610;49.916;8.284;2023-02-19T02:05:52;6.10;;;4.03;;
32096;SDS011;18610;49.916;8.284;2023-02-19T02:08:22;6.65;;;4.32;;
32096;SDS011;18610;49.916;8.284;2023-02-19T02:11:08;6.00;;;4.20;;
32096;SDS011;18610;49.916;8.284;2023-02-19T02:13:35;6.32;;;4.15;;
32096;SDS011;18610;49.916;8.284;2023-02-19T02:16:06;4.85;;;3.85;;
32096;SDS011;18610;49.916;8.284;2023-02-19T02:18:45;5.07;;;3.85;;
32096;SDS011;18610;49.916;8.284;2023-02-19T02:21:29;7.13;;;4.30;;
32096;SDS011;18610;49.916;8.284;2023-02-19T02:24:19;5.15;;;3.72;;
32096;SDS011;18610;49.916;8.284;2023-02-19T02:27:05;6.70;;;4.03;;
32096;SDS011;18610;49.916;8.284;2023-02-19T02:29:50;6.57;;;4.22;;
32096;SDS011;18610;49.916;8.284;2023-02-19T02:32:29;7.72;;;4.10;;
32096;SDS011;18610;49.916;8.284;2023-02-19T02:35:01;4.37;;;3.93;;
32096;SDS011;18610;49.916;8.284;2023-02-19T02:37:33;10.75;;;4.35;;
32096;SDS011;18610;49.916;8.284;2023-02-19T02:40:04;5.72;;;4.13;;
32096;SDS011;18610;49.916;8.284;2023-02-19T02:42:33;7.10;;;3.63;;
32096;SDS011;18610;49.916;8.284;2023-02-19T02:45:14;4.60;;;3.97;;
32096;SDS011;18610;49.916;8.284;2023-02-19T02:48:01;7.82;;;3.60;;
32096;SDS011;18610;49.916;8.284;2023-02-19T02:50:37;5.50;;;3.30;;
32096;SDS011;18610;49.916;8.284;2023-02-19T02:53:07;3.92;;;2.88;;
32096;SDS011;18610;49.916;8.284;2023-02-19T02:55:57;4.60;;;3.10;;
32096;SDS011;18610;49.916;8.284;2023-02-19T02:58:25;3.53;;;2.50;;
32096;SDS011;18610;49.916;8.284;2023-02-19T03:00:56;3.60;;;2.92;;
32096;SDS011;18610;49.916;8.284;2023-02-19T03:03:44;5.53;;;3.08;;
32096;SDS011;18610;49.916;8.284;2023-02-19T03:06:16;4.68;;;3.08;;
32096;SDS011;18610;49.916;8.284;2023-02-19T03:08:47;4.75;;;2.60;;
32096;SDS011;18610;49.916;8.284;2023-02-19T03:14:05;3.65;;;2.72;;
32096;SDS011;18610;49.916;8.284;2023-02-19T03:16:55;4.43;;;3.10;;
32096;SDS011;18610;49.916;8.284;2023-02-19T03:19:44;3.85;;;3.10;;
32096;SDS011;18610;49.916;8.284;2023-02-19T03:22:15;3.42;;;3.10;;
32096;SDS011;18610;49.916;8.284;2023-02-19T03:24:47;4.22;;;2.60;;
32096;SDS011;18610;49.916;8.284;2023-02-19T03:27:46;2.30;;;2.10;;
32096;SDS011;18610;49.916;8.284;2023-02-19T03:30:15;4.60;;;2.47;;
32096;SDS011;18610;49.916;8.284;2023-02-19T03:32:46;3.70;;;2.15;;
32096;SDS011;18610;49.916;8.284;2023-02-19T03:35:17;2.70;;;2.40;;
32096;SDS011;18610;49.916;8.284;2023-02-19T03:37:48;3.17;;;2.17;;
32096;SDS011;18610;49.916;8.284;2023-02-19T03:40:20;2.45;;;2.03;;
32096;SDS011;18610;49.916;8.284;2023-02-19T03:42:53;2.40;;;2.20;;
32096;SDS011;18610;49.916;8.284;2023-02-19T03:45:30;5.28;;;2.00;;
32096;SDS011;18610;49.916;8.284;2023-02-19T03:48:09;3.15;;;2.00;;
32096;SDS011;18610;49.916;8.284;2023-02-19T03:50:46;2.38;;;1.73;;
32096;SDS011;18610;49.916;8.284;2023-02-19T03:53:19;4.75;;;1.88;;
32096;SDS011;18610;49.916;8.284;2023-02-19T03:55:51;1.55;;;1.45;;
32096;SDS011;18610;49.916;8.284;2023-02-19T03:58:30;2.15;;;1.95;;
32096;SDS011;18610;49.916;8.284;2023-02-19T04:01:01;1.70;;;1.60;;
32096;SDS011;18610;49.916;8.284;2023-02-19T04:06:04;3.37;;;2.30;;
32096;SDS011;18610;49.916;8.284;2023-02-19T04:08:35;4.28;;;2.20;;
32096;SDS011;18610;49.916;8.284;2023-02-19T04:11:04;2.83;;;2.00;;
32096;SDS011;18610;49.916;8.284;2023-02-19T04:13:33;2.60;;;2.40;;
32096;SDS011;18610;49.916;8.284;2023-02-19T04:16:06;4.78;;;2.22;;
32096;SDS011;18610;49.916;8.284;2023-02-19T04:18:38;4.55;;;2.22;;
32096;SDS011;18610;49.916;8.284;2023-02-19T04:21:08;3.78;;;2.55;;
32096;SDS011;18610;49.916;8.284;2023-02-19T04:23:36;2.15;;;1.95;;
32096;SDS011;18610;49.916;8.284;2023-02-19T04:26:05;3.47;;;2.05;;
32096;SDS011;18610;49.916;8.284;2023-02-19T04:28:33;2.22;;;1.73;;
32096;SDS011;18610;49.916;8.284;2023-02-19T04:30:59;2.33;;;1.45;;
32096;SDS011;18610;49.916;8.284;2023-02-19T04:33:26;1.65;;;1.55;;
32096;SDS011;18610;49.916;8.284;2023-02-19T04:35:54;2.22;;;1.50;;
32096;SDS011;18610;49.916;8.284;2023-02-19T04:38:21;1.83;;;1.40;;
32096;SDS011;18610;49.916;8.284;2023-02-19T04:40:48;1.30;;;1.23;;
32096;SDS011;18610;49.916;8.284;2023-02-19T04:43:15;1.30;;;1.20;;
32096;SDS011;18610;49.916;8.284;2023-02-19T04:45:42;1.58;;;1.17;;
32096;SDS011;18610;49.916;8.284;2023-02-19T04:48:08;0.93;;;0.93;;
32096;SDS011;18610;49.916;8.284;2023-02-19T04:50:36;1.40;;;1.30;;
32096;SDS011;18610;49.916;8.284;2023-02-19T04:53:04;4.88;;;1.27;;
32096;SDS011;18610;49.916;8.284;2023-02-19T04:55:31;1.75;;;1.30;;
32096;SDS011;18610;49.916;8.284;2023-02-19T04:58:02;1.65;;;1.52;;
32096;SDS011;18610;49.916;8.284;2023-02-19T05:00:29;2.30;;;1.30;;
32096;SDS011;18610;49.916;8.284;2023-02-19T05:02:57;3.53;;;1.60;;
32096;SDS011;18610;49.916;8.284;2023-02-19T05:05:24;1.52;;;1.42;;
32096;SDS011;18610;49.916;8.284;2023-02-19T05:07:51;3.15;;;1.33;;
32096;SDS011;18610;49.916;8.284;2023-02-19T05:10:19;2.28;;;1.33;;
32096;SDS011;18610;49.916;8.284;2023-02-19T05:12:46;3.90;;;1.55;;
32096;SDS011;18610;49.916;8.284;2023-02-19T05:15:12;2.53;;;1.35;;
32096;SDS011;18610;49.916;8.284;2023-02-19T05:17:39;4.03;;;1.33;;
32096;SDS011;18610;49.916;8.284;2023-02-19T05:20:06;1.20;;;1.10;;
32096;SDS011;18610;49.916;8.284;2023-02-19T05:22:34;1.02;;;1.02;;
32096;SDS011;18610;49.916;8.284;2023-02-19T05:25:00;1.00;;;1.00;;
32096;SDS011;18610;49.916;8.284;2023-02-19T05:27:30;1.45;;;1.10;;
32096;SDS011;18610;49.916;8.284;2023-02-19T05:29:57;1.20;;;1.15;;
32096;SDS011;18610;49.916;8.284;2023-02-19T05:32:24;1.10;;;1.00;;
32096;SDS011;18610;49.916;8.284;2023-02-19T05:34:50;2.15;;;0.80;;
32096;SDS011;18610;49.916;8.284;2023-02-19T05:37:17;1.13;;;1.02;;
32096;SDS011;18610;49.916;8.284;2023-02-19T05:39:44;1.75;;;0.85;;
32096;SDS011;18610;49.916;8.284;2023-02-19T05:42:11;0.88;;;0.80;;
32096;SDS011;18610;49.916;8.284;2023-02-19T05:44:40;1.10;;;0.98;;
32096;SDS011;18610;49.916;8.284;2023-02-19T05:47:07;0.93;;;0.70;;
32096;SDS011;18610;49.916;8.284;2023-02-19T05:49:34;5.97;;;1.17;;
32096;SDS011;18610;49.916;8.284;2023-02-19T05:52:01;1.50;;;1.00;;
32096;SDS011;18610;49.916;8.284;2023-02-19T05:54:28;1.15;;;0.70;;
32096;SDS011;18610;49.916;8.284;2023-02-19T05:56:55;3.47;;;1.13;;
32096;SDS011;18610;49.916;8.284;2023-02-19T05:59:23;1.10;;;0.93;;
32096;SDS011;18610;49.916;8.284;2023-02-19T06:01:52;6.03;;;0.80;;
32096;SDS011;18610;49.916;8.284;2023-02-19T06:04:20;2.65;;;1.08;;
32096;SDS011;18610;49.916;8.284;2023-02-19T06:06:47;1.35;;;0.70;;
32096;SDS011;18610;49.916;8.284;2023-02-19T06:09:14;4.30;;;0.70;;
32096;SDS011;18610;49.916;8.284;2023-02-19T06:11:41;3.15;;;0.70;;
32096;SDS011;18610;49.916;8.284;2023-02-19T06:14:09;3.28;;;0.73;;
32096;SDS011;18610;49.916;8.284;2023-02-19T06:16:37;1.58;;;1.35;;
32096;SDS011;18610;49.916;8.284;2023-02-19T06:19:05;0.82;;;0.70;;
32096;SDS011;18610;49.916;8.284;2023-02-19T06:21:32;3.40;;;0.82;;
32096;SDS011;18610;49.916;8.284;2023-02-19T06:24:02;2.35;;;0.90;;
32096;SDS011;18610;49.916;8.284;2023-02-19T06:26:30;1.08;;;0.82;;
32096;SDS011;18610;49.916;8.284;2023-02-19T06:28:56;2.90;;;1.10;;
32096;SDS011;18610;49.916;8.284;2023-02-19T06:31:23;1.80;;;0.80;;
32096;SDS011;18610;49.916;8.284;2023-02-19T06:33:50;4.68;;;1.10;;
32096;SDS011;18610;49.916;8.284;2023-02-19T06:36:18;5.05;;;1.08;;
32096;SDS011;18610;49.916;8.284;2023-02-19T06:38:46;1.48;;;1.00;;
32096;SDS011;18610;49.916;8.284;2023-02-19T06:41:13;2.58;;;1.10;;
32096;SDS011;18610;49.916;8.284;2023-02-19T06:43:40;5.78;;;1.27;;
32096;SDS011;18610;49.916;8.284;2023-02-19T06:46:07;1.75;;;1.05;;
32096;SDS011;18610;49.916;8.284;2023-02-19T06:48:35;3.25;;;1.20;;
32096;SDS011;18610;49.916;8.284;2023-02-19T06:51:05;3.88;;;0.95;;
32096;SDS011;18610;49.916;8.284;2023-02-19T06:53:33;4.03;;;1.33;;
32096;SDS011;18610;49.916;8.284;2023-02-19T06:56:01;2.53;;;1.20;;
32096;SDS011;18610;49.916;8.284;2023-02-19T06:58:29;4.22;;;1.25;;
32096;SDS011;18610;49.916;8.284;2023-02-19T07:00:56;1.58;;;0.98;;
32096;SDS011;18610;49.916;8.284;2023-02-19T07:03:24;5.07;;;1.05;;
32096;SDS011;18610;49.916;8.284;2023-02-19T07:05:51;6.00;;;1.30;;
32096;SDS011;18610;49.916;8.284;2023-02-19T07:08:18;1.80;;;1.10;;
32096;SDS011;18610;49.916;8.284;2023-02-19T07:10:52;3.03;;;1.13;;
32096;SDS011;18610;49.916;8.284;2023-02-19T07:13:20;7.30;;;1.42;;
32096;SDS011;18610;49.916;8.284;2023-02-19T07:15:47;4.85;;;1.27;;
32096;SDS011;18610;49.916;8.284;2023-02-19T07:18:13;11.80;;;1.30;;
32096;SDS011;18610;49.916;8.284;2023-02-19T07:20:40;5.40;;;1.45;;
32096;SDS011;18610;49.916;8.284;2023-02-19T07:23:07;7.05;;;1.20;;
32096;SDS011;18610;49.916;8.284;2023-02-19T07:25:34;5.35;;;1.40;;
32096;SDS011;18610;49.916;8.284;2023-02-19T07:28:04;1.88;;;1.10;;
32096;SDS011;18610;49.916;8.284;2023-02-19T07:30:31;5.82;;;1.45;;
32096;SDS011;18610;49.916;8.284;2023-02-19T07:32:57;11.05;;;1.33;;
32096;SDS011;18610;49.916;8.284;2023-02-19T07:35:24;3.38;;;1.52;;
32096;SDS011;18610;49.916;8.284;2023-02-19T07:37:51;3.75;;;1.27;;
32096;SDS011;18610;49.916;8.284;2023-02-19T07:40:18;3.45;;;1.35;;
32096;SDS011;18610;49.916;8.284;2023-02-19T07:42:45;9.32;;;1.85;;
32096;SDS011;18610;49.916;8.284;2023-02-19T07:45:13;7.65;;;1.85;;
32096;SDS011;18610;49.916;8.284;2023-02-19T07:47:40;6.05;;;1.73;;
32096;SDS011;18610;49.916;8.284;2023-02-19T07:50:06;8.15;;;1.75;;
32096;SDS011;18610;49.916;8.284;2023-02-19T07:52:33;10.82;;;1.70;;
32096;SDS011;18610;49.916;8.284;2023-02-19T07:55:00;13.20;;;1.80;;
32096;SDS011;18610;49.916;8.284;2023-02-19T07:57:27;8.07;;;2.00;;
32096;SDS011;18610;49.916;8.284;2023-02-19T07:59:55;6.15;;;1.60;;
32096;SDS011;18610;49.916;8.284;2023-02-19T08:02:24;7.97;;;1.83;;
32096;SDS011;18610;49.916;8.284;2023-02-19T08:05:08;8.02;;;2.22;;
32096;SDS011;18610;49.916;8.284;2023-02-19T08:07:35;7.00;;;2.03;;
32096;SDS011;18610;49.916;8.284;2023-02-19T08:10:02;4.07;;;1.42;;
32096;SDS011;18610;49.916;8.284;2023-02-19T08:12:53;2.20;;;1.48;;
32096;SDS011;18610;49.916;8.284;2023-02-19T08:15:38;7.05;;;1.80;;
32096;SDS011;18610;49.916;8.284;2023-02-19T08:18:06;10.50;;;2.33;;
32096;SDS011;18610;49.916;8.284;2023-02-19T08:20:34;10.13;;;2.88;;
32096;SDS011;18610;49.916;8.284;2023-02-19T08:23:01;4.70;;;1.90;;
32096;SDS011;18610;49.916;8.284;2023-02-19T08:25:28;10.98;;;2.55;;
32096;SDS011;18610;49.916;8.284;2023-02-19T08:27:55;15.15;;;6.55;;
32096;SDS011;18610;49.916;8.284;2023-02-19T08:30:22;25.92;;;9.85;;
32096;SDS011;18610;49.916;8.284;2023-02-19T08:32:49;19.08;;;7.10;;
32096;SDS011;18610;49.916;8.284;2023-02-19T08:35:17;6.20;;;2.45;;
32096;SDS011;18610;49.916;8.284;2023-02-19T08:37:44;6.25;;;1.88;;
32096;SDS011;18610;49.916;8.284;2023-02-19T08:40:11;11.68;;;2.35;;
32096;SDS011;18610;49.916;8.284;2023-02-19T08:42:37;10.68;;;2.92;;
32096;SDS011;18610;49.916;8.284;2023-02-19T08:45:04;10.02;;;3.78;;
32096;SDS011;18610;49.916;8.284;2023-02-19T08:47:33;8.07;;;3.10;;
32096;SDS011;18610;49.916;8.284;2023-02-19T08:50:00;6.75;;;2.63;;
32096;SDS011;18610;49.916;8.284;2023-02-19T08:52:30;7.03;;;2.40;;
32096;SDS011;18610;49.916;8.284;2023-02-19T08:54:57;12.68;;;2.85;;
32096;SDS011;18610;49.916;8.284;2023-02-19T08:57:24;15.48;;;4.05;;
32096;SDS011;18610;49.916;8.284;2023-02-19T08:59:53;9.75;;;2.70;;
32096;SDS011;18610;49.916;8.284;2023-02-19T09:02:20;11.02;;;2.63;;
32096;SDS011;18610;49.916;8.284;2023-02-19T09:04:47;7.45;;;2.10;;
32096;SDS011;18610;49.916;8.284;2023-02-19T09:07:14;7.05;;;2.40;;
32096;SDS011;18610;49.916;8.284;2023-02-19T09:09:42;7.18;;;2.25;;
32096;SDS011;18610;49.916;8.284;2023-02-19T09:12:10;9.93;;;1.63;;
32096;SDS011;18610;49.916;8.284;2023-02-19T09:14:37;5.30;;;1.80;;
32096;SDS011;18610;49.916;8.284;2023-02-19T09:17:04;8.40;;;1.60;;
32096;SDS011;18610;49.916;8.284;2023-02-19T09:19:32;8.27;;;1.55;;
32096;SDS011;18610;49.916;8.284;2023-02-19T09:21:59;13.73;;;2.72;;
32096;SDS011;18610;49.916;8.284;2023-02-19T09:24:26;5.35;;;1.95;;
32096;SDS011;18610;49.916;8.284;2023-02-19T09:26:54;9.70;;;2.00;;
32096;SDS011;18610;49.916;8.284;2023-02-19T09:29:21;6.65;;;1.70;;
32096;SDS011;18610;49.916;8.284;2023-02-19T09:31:50;6.15;;;2.05;;
32096;SDS011;18610;49.916;8.284;2023-02-19T09:34:20;6.97;;;1.88;;
32096;SDS011;18610;49.916;8.284;2023-02-19T09:36:47;9.27;;;2.00;;
32096;SDS011;18610;49.916;8.284;2023-02-19T09:39:14;7.22;;;1.67;;
32096;SDS011;18610;49.916;8.284;2023-02-19T09:41:41;13.02;;;2.45;;
32096;SDS011;18610;49.916;8.284;2023-02-19T09:44:12;8.50;;;2.25;;
32096;SDS011;18610;49.916;8.284;2023-02-19T09:46:44;12.55;;;2.17;;
32096;SDS011;18610;49.916;8.284;2023-02-19T09:49:13;8.40;;;2.40;;
32096;SDS011;18610;49.916;8.284;2023-02-19T09:51:46;9.90;;;2.28;;
32096;SDS011;18610;49.916;8.284;2023-02-19T09:54:19;10.45;;;2.55;;
32096;SDS011;18610;49.916;8.284;2023-02-19T09:56:47;7.50;;;2.30;;
32096;SDS011;18610;49.916;8.284;2023-02-19T09:59:17;10.65;;;2.35;;
32096;SDS011;18610;49.916;8.284;2023-02-19T10:01:47;11.50;;;3.13;;
32096;SDS011;18610;49.916;8.284;2023-02-19T10:04:17;49.08;;;19.38;;
32096;SDS011;18610;49.916;8.284;2023-02-19T10:06:43;47.83;;;21.15;;
32096;SDS011;18610;49.916;8.284;2023-02-19T10:09:14;11.63;;;3.40;;
32096;SDS011;18610;49.916;8.284;2023-02-19T10:11:47;8.90;;;2.60;;
32096;SDS011;18610;49.916;8.284;2023-02-19T10:14:17;11.20;;;2.67;;
32096;SDS011;18610;49.916;8.284;2023-02-19T10:16:47;8.85;;;2.10;;
32096;SDS011;18610;49.916;8.284;2023-02-19T10:19:15;12.52;;;2.47;;
32096;SDS011;18610;49.916;8.284;2023-02-19T10:21:42;5.97;;;1.85;;
32096;SDS011;18610;49.916;8.284;2023-02-19T10:24:11;10.80;;;2.15;;
32096;SDS011;18610;49.916;8.284;2023-02-19T10:26:41;7.15;;;1.55;;
32096;SDS011;18610;49.916;8.284;2023-02-19T10:29:08;9.43;;;2.22;;
32096;SDS011;18610;49.916;8.284;2023-02-19T10:31:37;8.95;;;1.50;;
32096;SDS011;18610;49.916;8.284;2023-02-19T10:34:03;6.43;;;1.90;;
32096;SDS011;18610;49.916;8.284;2023-02-19T10:36:35;5.82;;;1.77;;
32096;SDS011;18610;49.916;8.284;2023-02-19T10:39:06;6.47;;;1.90;;
32096;SDS011;18610;49.916;8.284;2023-02-19T10:41:43;8.25;;;2.17;;
32096;SDS011;18610;49.916;8.284;2023-02-19T10:44:12;5.20;;;1.83;;
32096;SDS011;18610;49.916;8.284;2023-02-19T10:46:43;9.85;;;1.63;;
32096;SDS011;18610;49.916;8.284;2023-02-19T10:49:17;13.00;;;2.47;;
32096;SDS011;18610;49.916;8.284;2023-02-19T10:51:48;10.80;;;2.53;;
32096;SDS011;18610;49.916;8.284;2023-02-19T10:54:17;15.50;;;2.35;;
32096;SDS011;18610;49.916;8.284;2023-02-19T10:56:45;6.57;;;1.80;;
32096;SDS011;18610;49.916;8.284;2023-02-19T10:59:13;8.55;;;1.95;;
32096;SDS011;18610;49.916;8.284;2023-02-19T11:01:57;16.17;;;2.55;;
32096;SDS011;18610;49.916;8.284;2023-02-19T11:04:26;7.30;;;2.38;;
32096;SDS011;18610;49.916;8.284;2023-02-19T11:06:55;8.55;;;2.50;;
32096;SDS011;18610;49.916;8.284;2023-02-19T11:09:24;8.95;;;2.15;;
32096;SDS011;18610;49.916;8.284;2023-02-19T11:11:54;11.05;;;2.75;;
32096;SDS011;18610;49.916;8.284;2023-02-19T11:14:23;8.85;;;1.65;;
32096;SDS011;18610;49.916;8.284;2023-02-19T11:16:51;6.95;;;2.10;;
32096;SDS011;18610;49.916;8.284;2023-02-19T11:19:26;11.60;;;2.55;;
32096;SDS011;18610;49.916;8.284;2023-02-19T11:21:57;11.10;;;2.63;;
32096;SDS011;18610;49.916;8.284;2023-02-19T11:24:27;11.10;;;2.60;;
32096;SDS011;18610;49.916;8.284;2023-02-19T11:26:57;8.65;;;2.45;;
32096;SDS011;18610;49.916;8.284;2023-02-19T11:29:25;7.60;;;2.20;;
32096;SDS011;18610;49.916;8.284;2023-02-19T11:31:53;9.35;;;2.55;;
32096;SDS011;18610;49.916;8.284;2023-02-19T11:34:26;22.95;;;9.60;;
32096;SDS011;18610;49.916;8.284;2023-02-19T11:39:41;5.28;;;1.95;;
32096;SDS011;18610;49.916;8.284;2023-02-19T11:45:07;7.20;;;1.73;;
32096;SDS011;18610;49.916;8.284;2023-02-19T11:50:55;5.75;;;1.83;;
32096;SDS011;18610;49.916;8.284;2023-02-19T11:53:35;7.88;;;3.63;;
32096;SDS011;18610;49.916;8.284;2023-02-19T11:56:13;6.38;;;2.17;;
32096;SDS011;18610;49.916;8.284;2023-02-19T11:58:45;8.30;;;4.10;;
32096;SDS011;18610;49.916;8.284;2023-02-19T12:01:21;9.52;;;2.50;;
32096;SDS011;18610;49.916;8.284;2023-02-19T12:03:54;7.05;;;2.53;;
32096;SDS011;18610;49.916;8.284;2023-02-19T12:06:33;11.02;;;2.35;;
32096;SDS011;18610;49.916;8.284;2023-02-19T12:09:16;5.55;;;2.13;;
32096;SDS011;18610;49.916;8.284;2023-02-19T12:11:54;10.52;;;2.53;;
32096;SDS011;18610;49.916;8.284;2023-02-19T12:14:47;6.20;;;1.88;;
32096;SDS011;18610;49.916;8.284;2023-02-19T12:17:32;12.82;;;2.05;;
32096;SDS011;18610;49.916;8.284;2023-02-19T12:20:20;6.32;;;2.10;;
32096;SDS011;18610;49.916;8.284;2023-02-19T12:23:02;9.25;;;2.30;;
32096;SDS011;18610;49.916;8.284;2023-02-19T12:25:51;13.10;;;4.28;;
32096;SDS011;18610;49.916;8.284;2023-02-19T12:28:30;10.85;;;3.50;;
32096;SDS011;18610;49.916;8.284;2023-02-19T12:31:18;11.30;;;2.10;;
32096;SDS011;18610;49.916;8.284;2023-02-19T12:34:09;12.23;;;2.65;;
32096;SDS011;18610;49.916;8.284;2023-02-19T12:37:15;6.38;;;1.90;;
32096;SDS011;18610;49.916;8.284;2023-02-19T12:39:55;4.82;;;2.00;;
32096;SDS011;18610;49.916;8.284;2023-02-19T12:42:44;10.98;;;3.63;;
32096;SDS011;18610;49.916;8.284;2023-02-19T12:45:21;12.48;;;2.90;;
32096;SDS011;18610;49.916;8.284;2023-02-19T12:47:56;12.95;;;3.20;;
32096;SDS011;18610;49.916;8.284;2023-02-19T12:50:29;8.95;;;2.50;;
32096;SDS011;18610;49.916;8.284;2023-02-19T12:52:59;10.75;;;3.28;;
32096;SDS011;18610;49.916;8.284;2023-02-19T12:55:33;6.63;;;2.63;;
32096;SDS011;18610;49.916;8.284;2023-02-19T12:58:03;11.65;;;2.53;;
32096;SDS011;18610;49.916;8.284;2023-02-19T13:00:34;6.63;;;2.50;;
32096;SDS011;18610;49.916;8.284;2023-02-19T13:03:08;10.13;;;2.80;;
32096;SDS011;18610;49.916;8.284;2023-02-19T13:05:43;9.65;;;2.45;;
32096;SDS011;18610;49.916;8.284;2023-02-19T13:08:17;5.78;;;1.98;;
32096;SDS011;18610;49.916;8.284;2023-02-19T13:10:52;9.15;;;3.05;;
32096;SDS011;18610;49.916;8.284;2023-02-19T13:13:24;11.07;;;1.70;;
32096;SDS011;18610;49.916;8.284;2023-02-19T13:15:55;10.03;;;2.33;;
32096;SDS011;18610;49.916;8.284;2023-02-19T13:18:29;7.43;;;1.77;;
32096;SDS011;18610;49.916;8.284;2023-02-19T13:21:00;4.97;;;1.77;;
32096;SDS011;18610;49.916;8.284;2023-02-19T13:23:28;5.65;;;1.50;;
32096;SDS011;18610;49.916;8.284;2023-02-19T13:26:22;7.70;;;2.30;;
32096;SDS011;18610;49.916;8.284;2023-02-19T13:29:06;5.72;;;1.50;;
32096;SDS011;18610;49.916;8.284;2023-02-19T13:34:52;6.45;;;1.90;;
32096;SDS011;18610;49.916;8.284;2023-02-19T13:37:28;11.35;;;2.08;;
32096;SDS011;18610;49.916;8.284;2023-02-19T13:39:57;8.07;;;2.28;;
32096;SDS011;18610;49.916;8.284;2023-02-19T13:42:31;6.70;;;1.90;;
32096;SDS011;18610;49.916;8.284;2023-02-19T13:45:00;6.15;;;2.10;;
32096;SDS011;18610;49.916;8.284;2023-02-19T13:47:47;7.43;;;2.03;;
32096;SDS011;18610;49.916;8.284;2023-02-19T13:50:24;4.50;;;1.52;;
32096;SDS011;18610;49.916;8.284;2023-02-19T13:52:53;5.03;;;2.03;;
32096;SDS011;18610;49.916;8.284;2023-02-19T13:55:43;52.30;;;33.17;;
32096;SDS011;18610;49.916;8.284;2023-02-19T14:01:15;25.00;;;10.20;;
32096;SDS011;18610;49.916;8.284;2023-02-19T14:03:46;89.03;;;43.28;;
32096;SDS011;18610;49.916;8.284;2023-02-19T14:06:18;54.42;;;28.52;;
32096;SDS011;18610;49.916;8.284;2023-02-19T14:08:45;70.55;;;32.55;;
32096;SDS011;18610;49.916;8.284;2023-02-19T14:12:00;36.45;;;18.30;;
32096;SDS011;18610;49.916;8.284;2023-02-19T14:14:33;16.15;;;8.48;;
32096;SDS011;18610;49.916;8.284;2023-02-19T14:19:51;15.63;;;7.72;;
32096;SDS011;18610;49.916;8.284;2023-02-19T14:25:18;30.27;;;15.80;;
32096;SDS011;18610;49.916;8.284;2023-02-19T14:27:58;24.88;;;11.82;;
32096;SDS011;18610;49.916;8.284;2023-02-19T14:30:27;30.00;;;17.10;;
32096;SDS011;18610;49.916;8.284;2023-02-19T14:32:56;34.25;;;20.45;;
32096;SDS011;18610;49.916;8.284;2023-02-19T14:35:23;16.30;;;8.55;;
32096;SDS011;18610;49.916;8.284;2023-02-19T14:37:54;32.25;;;18.73;;
32096;SDS011;18610;49.916;8.284;2023-02-19T14:40:24;9.27;;;6.13;;
32096;SDS011;18610;49.916;8.284;2023-02-19T14:42:55;18.17;;;10.88;;
32096;SDS011;18610;49.916;8.284;2023-02-19T14:45:23;21.63;;;9.52;;
32096;SDS011;18610;49.916;8.284;2023-02-19T14:47:54;12.20;;;5.40;;
32096;SDS011;18610;49.916;8.284;2023-02-19T14:50:24;2.13;;;1.23;;
32096;SDS011;18610;49.916;8.284;2023-02-19T14:52:55;3.20;;;1.42;;
32096;SDS011;18610;49.916;8.284;2023-02-19T14:55:26;4.13;;;1.23;;
32096;SDS011;18610;49.916;8.284;2023-02-19T14:57:56;5.20;;;1.58;;
32096;SDS011;18610;49.916;8.284;2023-02-19T15:00:25;4.70;;;1.08;;
32096;SDS011;18610;49.916;8.284;2023-02-19T15:02:54;4.95;;;1.83;;
32096;SDS011;18610;49.916;8.284;2023-02-19T15:05:25;4.53;;;1.38;;
32096;SDS011;18610;49.916;8.284;2023-02-19T15:07:53;3.22;;;1.20;;
32096;SDS011;18610;49.916;8.284;2023-02-19T15:10:23;5.57;;;1.30;;
32096;SDS011;18610;49.916;8.284;2023-02-19T15:12:52;2.65;;;1.35;;
32096;SDS011;18610;49.916;8.284;2023-02-19T15:15:22;2.92;;;1.05;;
32096;SDS011;18610;49.916;8.284;2023-02-19T15:17:50;6.50;;;1.60;;
32096;SDS011;18610;49.916;8.284;2023-02-19T15:20:19;7.45;;;1.35;;
32096;SDS011;18610;49.916;8.284;2023-02-19T15:22:50;3.92;;;2.00;;
32096;SDS011;18610;49.916;8.284;2023-02-19T15:25:18;2.30;;;1.02;;
32096;SDS011;18610;49.916;8.284;2023-02-19T15:27:46;2.67;;;1.40;;
32096;SDS011;18610;49.916;8.284;2023-02-19T15:30:15;3.80;;;1.55;;